createdAt,value
2019-05-06T00:01:56.127Z,6.80
2019-05-06T00:04:28.686Z,6.30
2019-05-06T00:06:58.230Z,6.37
2019-05-06T00:09:41.259Z,6.00
2019-05-06T00:12:05.865Z,5.67
2019-05-06T00:14:39.871Z,6.80
2019-05-06T00:17:16.625Z,7.33
2019-05-06T00:20:10.978Z,6.67
2019-05-06T00:22:19.265Z,6.00
2019-05-06T00:24:54.590Z,6.00
2019-05-06T00:27:24.761Z,7.80
2019-05-06T00:29:57.471Z,7.10
2019-05-06T00:32:27.507Z,8.63
2019-05-06T00:34:57.775Z,5.23
2019-05-06T00:37:34.759Z,6.20
2019-05-06T00:40:10.055Z,8.17
2019-05-06T00:42:49.353Z,7.20
2019-05-06T00:45:15.883Z,7.27
2019-05-06T00:47:53.592Z,5.40
2019-05-06T00:50:19.857Z,5.23
2019-05-06T00:52:53.959Z,6.33
2019-05-06T00:55:24.044Z,8.10
2019-05-06T00:57:54.456Z,6.37
2019-05-06T01:00:25.429Z,6.23
2019-05-06T01:02:54.647Z,5.27
2019-05-06T01:05:33.800Z,7.10
2019-05-06T01:08:09.609Z,6.50
2019-05-06T01:10:37.413Z,7.23
2019-05-06T01:13:08.003Z,6.50
2019-05-06T01:15:43.934Z,6.13
2019-05-06T01:18:13.782Z,5.87
2019-05-06T01:20:46.532Z,8.70
2019-05-06T01:23:21.077Z,6.80
2019-05-06T01:25:54.508Z,7.53
2019-05-06T01:28:29.497Z,5.90
2019-05-06T01:31:42.293Z,6.57
2019-05-06T01:33:34.850Z,5.90
2019-05-06T01:36:04.631Z,7.77
2019-05-06T01:38:38.583Z,6.00
2019-05-06T01:41:24.390Z,8.20
2019-05-06T01:44:04.125Z,5.83
2019-05-06T01:46:26.037Z,7.13
2019-05-06T01:48:56.887Z,8.60
2019-05-06T01:51:27.173Z,7.27
2019-05-06T01:54:03.910Z,4.60
2019-05-06T01:56:44.823Z,5.23
2019-05-06T01:59:06.293Z,9.00
2019-05-06T02:01:53.943Z,7.27
2019-05-06T02:04:08.995Z,7.67
2019-05-06T02:06:39.957Z,6.40
2019-05-06T02:09:14.220Z,5.00
2019-05-06T02:11:47.893Z,4.53
2019-05-06T02:14:18.109Z,5.37
2019-05-06T02:16:55.449Z,5.60
2019-05-06T02:19:27.557Z,7.33
2019-05-06T02:21:58.015Z,8.10
2019-05-06T02:24:36.216Z,5.00
2019-05-06T02:27:09.064Z,5.07
2019-05-06T02:29:55.199Z,6.83
2019-05-06T02:32:35.990Z,4.37
2019-05-06T02:35:17.145Z,5.87
2019-05-06T02:37:47.520Z,5.47
2019-05-06T02:40:27.175Z,3.97
2019-05-06T02:42:56.882Z,6.77
2019-05-06T02:45:33.539Z,7.30
2019-05-06T02:48:22.857Z,4.67
2019-05-06T02:50:54.057Z,4.60
2019-05-06T02:53:23.753Z,5.27
2019-05-06T02:55:57.021Z,5.37
2019-05-06T02:58:27.664Z,6.60
2019-05-06T03:00:58.756Z,4.30
2019-05-06T03:03:28.871Z,4.20
2019-05-06T03:06:03.693Z,5.40
2019-05-06T03:08:32.698Z,4.97
2019-05-06T03:11:03.979Z,4.53
2019-05-06T03:13:35.325Z,4.73
2019-05-06T03:16:53.600Z,6.70
2019-05-06T03:21:36.685Z,4.70
2019-05-06T03:24:07.415Z,6.23
2019-05-06T03:26:34.447Z,5.70
2019-05-06T03:29:05.033Z,5.30
2019-05-06T03:31:36.360Z,5.40
2019-05-06T03:34:27.790Z,3.43
2019-05-06T03:36:41.222Z,6.53
2019-05-06T03:39:13.900Z,4.33
2019-05-06T03:41:50.289Z,5.80
2019-05-06T03:44:23.957Z,4.47
2019-05-06T03:47:13.807Z,3.63
2019-05-06T03:49:49.772Z,3.83
2019-05-06T03:52:18.902Z,2.97
2019-05-06T03:54:48.010Z,7.20
2019-05-06T03:57:22.925Z,5.60
2019-05-06T04:00:04.962Z,4.60
2019-05-06T04:02:27.317Z,6.00
2019-05-06T04:04:57.895Z,5.97
2019-05-06T04:07:30.142Z,4.57
2019-05-06T04:09:58.906Z,7.40
2019-05-06T04:12:34.326Z,6.70
2019-05-06T04:15:04.311Z,5.77
2019-05-06T04:17:38.172Z,5.40
2019-05-06T04:20:23.591Z,8.00
2019-05-06T04:22:53.103Z,5.53
2019-05-06T04:25:43.474Z,4.80
2019-05-06T04:28:14.042Z,9.43
2019-05-06T04:30:43.494Z,5.53
2019-05-06T04:33:23.477Z,6.43
2019-05-06T04:35:54.179Z,8.63
2019-05-06T04:38:23.489Z,5.13
2019-05-06T04:40:58.342Z,5.93
2019-05-06T04:46:17.029Z,6.87
2019-05-06T04:48:46.407Z,5.73
2019-05-06T04:51:15.008Z,5.33
2019-05-06T04:53:44.330Z,5.53
2019-05-06T04:56:15.083Z,8.10
2019-05-06T04:58:44.538Z,7.40
2019-05-06T05:01:18.521Z,4.47
2019-05-06T05:03:47.603Z,5.93
2019-05-06T05:06:18.568Z,4.83
2019-05-06T05:09:36.922Z,8.17
2019-05-06T05:17:33.149Z,4.13
2019-05-06T05:20:13.233Z,5.33
2019-05-06T05:22:23.038Z,6.83
2019-05-06T05:24:54.966Z,4.37
2019-05-06T05:27:47.086Z,4.47
2019-05-06T05:30:15.304Z,7.80
2019-05-06T05:32:52.025Z,8.27
2019-05-06T05:35:22.601Z,20.60
2019-05-06T05:37:58.648Z,5.43
2019-05-06T05:40:42.953Z,12.10
2019-05-06T05:43:13.458Z,7.40
2019-05-06T05:45:47.577Z,6.03
2019-05-06T05:48:38.134Z,5.87
2019-05-06T05:51:46.823Z,8.03
2019-05-06T06:05:08.710Z,9.10
2019-05-06T06:06:42.311Z,9.50
2019-05-06T06:18:43.864Z,6.53
2019-05-06T06:21:25.678Z,6.30
2019-05-06T06:24:05.124Z,11.73
2019-05-06T06:27:47.586Z,6.80
2019-05-06T06:29:37.135Z,8.23
2019-05-06T06:35:07.155Z,5.87
2019-05-06T06:37:42.512Z,5.70
2019-05-06T06:40:13.996Z,10.07
2019-05-06T06:43:02.158Z,6.63
2019-05-06T06:45:37.310Z,7.73
2019-05-06T06:51:12.474Z,6.40
2019-05-06T06:53:53.431Z,9.20
2019-05-06T06:56:42.384Z,9.63
2019-05-06T07:08:34.366Z,7.80
2019-05-06T07:10:53.683Z,9.10
2019-05-06T07:13:24.685Z,8.13
2019-05-06T07:16:14.989Z,7.53
2019-05-06T07:18:44.915Z,5.83
2019-05-06T07:21:15.036Z,7.47
2019-05-06T07:23:43.817Z,6.40
2019-05-06T07:26:14.389Z,8.20
2019-05-06T07:28:43.775Z,8.20
2019-05-06T07:31:21.959Z,8.60
2019-05-06T07:33:43.481Z,7.13
2019-05-06T07:36:13.062Z,10.43
2019-05-06T07:38:43.692Z,14.00
2019-05-06T07:41:15.083Z,7.50
2019-05-06T07:43:45.828Z,9.57
2019-05-06T07:46:16.408Z,7.37
2019-05-06T07:48:45.206Z,5.33
2019-05-06T07:51:13.878Z,7.70
2019-05-06T07:53:44.259Z,4.03
2019-05-06T07:56:12.984Z,8.13
2019-05-06T07:58:43.454Z,6.10
2019-05-06T08:01:16.397Z,3.90
2019-05-06T08:03:53.304Z,3.57
2019-05-06T08:06:18.844Z,4.20
2019-05-06T08:08:48.668Z,6.13
2019-05-06T08:11:17.550Z,5.77
2019-05-06T08:13:46.378Z,5.30
2019-05-06T08:16:15.275Z,4.77
2019-05-06T08:18:44.053Z,7.20
2019-05-06T08:21:17.300Z,4.20
2019-05-06T08:23:47.546Z,4.37
2019-05-06T08:26:17.871Z,5.97
2019-05-06T08:28:46.778Z,3.40
2019-05-06T08:31:17.245Z,5.50
2019-05-06T08:33:46.162Z,6.10
2019-05-06T08:36:16.418Z,6.83
2019-05-06T08:38:49.972Z,3.10
2019-05-06T08:41:18.769Z,4.20
2019-05-06T08:43:47.686Z,4.73
2019-05-06T08:46:16.540Z,9.80
2019-05-06T08:48:45.331Z,5.33
2019-05-06T08:51:15.709Z,1.53
2019-05-06T08:53:53.310Z,2.20
2019-05-06T08:56:22.185Z,3.97
2019-05-06T08:58:52.759Z,2.00
2019-05-06T09:01:26.725Z,5.47
2019-05-06T09:04:08.675Z,2.83
2019-05-06T09:06:30.206Z,2.60
2019-05-06T09:08:57.134Z,2.97
2019-05-06T09:11:27.586Z,4.57
2019-05-06T09:13:56.328Z,5.83
2019-05-06T09:16:25.119Z,2.73
2019-05-06T09:18:53.930Z,3.20
2019-05-06T09:21:22.815Z,4.63
2019-05-06T09:23:53.079Z,8.13
2019-05-06T09:26:35.879Z,4.23
2019-05-06T09:29:06.203Z,3.40
2019-05-06T09:31:46.017Z,2.87
2019-05-06T09:34:19.420Z,6.33
2019-05-06T09:36:54.431Z,6.83
2019-05-06T09:39:22.813Z,2.67
2019-05-06T09:41:57.782Z,4.37
2019-05-06T09:44:23.331Z,6.40
2019-05-06T09:46:53.154Z,4.20
2019-05-06T09:49:23.979Z,3.73
2019-05-06T09:51:52.959Z,4.87
2019-05-06T09:57:21.986Z,4.03
2019-05-06T09:59:49.105Z,2.90
2019-05-06T10:02:17.922Z,2.53
2019-05-06T10:04:46.781Z,2.27
2019-05-06T10:07:16.160Z,3.33
2019-05-06T10:09:46.170Z,7.93
2019-05-06T10:12:22.731Z,4.43
2019-05-06T10:14:47.359Z,3.70
2019-05-06T10:17:16.150Z,6.27
2019-05-06T10:19:45.054Z,6.17
2019-05-06T10:22:13.965Z,8.13
2019-05-06T10:24:43.401Z,3.33
2019-05-06T10:27:12.518Z,3.60
2019-05-06T10:29:45.698Z,2.23
2019-05-06T10:32:28.050Z,5.03
2019-05-06T10:34:57.079Z,3.10
2019-05-06T10:37:54.594Z,2.60
2019-05-06T10:40:38.838Z,4.93
2019-05-06T10:43:17.930Z,3.83
2019-05-06T10:45:49.121Z,3.33
2019-05-06T10:48:17.417Z,3.50
2019-05-06T10:50:47.935Z,4.73
2019-05-06T10:53:18.593Z,6.07
2019-05-06T10:55:53.615Z,9.67
2019-05-06T10:58:22.740Z,7.90
2019-05-06T11:00:59.687Z,3.57
2019-05-06T11:03:28.654Z,4.43
2019-05-06T11:05:57.483Z,7.70
2019-05-06T11:08:26.421Z,3.40
2019-05-06T11:10:55.290Z,1.43
2019-05-06T11:13:32.249Z,4.93
2019-05-06T11:16:00.422Z,4.00
2019-05-06T11:18:33.418Z,3.03
2019-05-06T11:21:04.100Z,3.00
2019-05-06T11:23:33.796Z,1.43
2019-05-06T11:26:03.213Z,1.47
2019-05-06T11:31:58.163Z,3.65
2019-05-06T11:37:00.833Z,3.20
2019-05-06T11:37:47.173Z,2.47
2019-05-06T11:39:28.841Z,8.23
2019-05-06T11:42:15.340Z,3.90
2019-05-06T11:44:28.221Z,6.43
2019-05-06T11:46:57.047Z,2.57
2019-05-06T11:49:25.993Z,3.10
2019-05-06T11:51:54.833Z,3.40
2019-05-06T11:54:24.653Z,4.37
2019-05-06T11:56:58.084Z,4.03
2019-05-06T11:59:26.088Z,2.37
2019-05-06T12:02:03.670Z,6.70
2019-05-06T12:04:34.606Z,3.20
2019-05-06T12:07:43.439Z,3.17
2019-05-06T12:09:37.328Z,4.30
2019-05-06T12:12:07.365Z,8.53
2019-05-06T12:14:36.385Z,2.93
2019-05-06T12:17:06.881Z,4.75
2019-05-06T12:19:47.945Z,3.53
2019-05-06T12:22:16.818Z,1.80
2019-05-06T12:24:46.112Z,2.23
2019-05-06T12:27:16.526Z,3.57
2019-05-06T12:29:45.181Z,3.70
2019-05-06T12:32:22.532Z,5.50
2019-05-06T12:34:52.485Z,5.07
2019-05-06T12:37:23.169Z,3.77
2019-05-06T12:39:53.613Z,2.87
2019-05-06T12:42:29.994Z,5.40
2019-05-06T12:45:03.694Z,3.20
2019-05-06T12:47:38.479Z,4.00
2019-05-06T12:50:07.833Z,2.30
2019-05-06T12:52:36.548Z,1.73
2019-05-06T12:55:18.421Z,5.60
2019-05-06T12:57:38.126Z,3.53
2019-05-06T13:00:08.939Z,4.17
2019-05-06T13:02:37.746Z,4.00
2019-05-06T13:05:07.569Z,4.87
2019-05-06T13:07:37.926Z,4.00
2019-05-06T13:10:07.734Z,2.60
2019-05-06T13:12:37.964Z,5.47
2019-05-06T13:15:08.196Z,5.60
2019-05-06T13:17:37.498Z,2.70
2019-05-06T13:20:07.915Z,3.00
2019-05-06T13:22:41.114Z,5.17
2019-05-06T13:25:13.361Z,3.50
2019-05-06T13:27:46.374Z,2.30
2019-05-06T13:30:15.783Z,2.40
2019-05-06T13:32:46.320Z,4.67
2019-05-06T13:35:15.404Z,3.73
2019-05-06T13:37:44.207Z,2.03
2019-05-06T13:40:13.576Z,2.67
2019-05-06T13:42:44.284Z,3.23
2019-05-06T13:45:13.108Z,2.67
2019-05-06T13:47:49.163Z,1.80
2019-05-06T13:50:19.574Z,5.63
2019-05-06T13:53:07.239Z,5.60
2019-05-06T13:55:22.036Z,2.17
2019-05-06T13:57:52.248Z,2.97
2019-05-06T14:00:22.431Z,1.90
2019-05-06T14:02:53.372Z,3.77
2019-05-06T14:05:22.655Z,4.20
2019-05-06T14:07:52.696Z,3.57
2019-05-06T14:10:22.307Z,5.90
2019-05-06T14:12:53.196Z,2.37
2019-05-06T14:15:23.181Z,2.97
2019-05-06T14:17:53.201Z,2.03
2019-05-06T14:20:22.512Z,2.23
2019-05-06T14:22:56.179Z,2.13
2019-05-06T14:25:26.844Z,5.23
2019-05-06T14:27:57.406Z,2.17
2019-05-06T14:30:42.693Z,2.47
2019-05-06T14:33:15.367Z,3.27
2019-05-06T14:35:44.633Z,2.23
2019-05-06T14:38:13.765Z,1.30
2019-05-06T14:41:04.506Z,2.47
2019-05-06T14:43:33.554Z,1.50
2019-05-06T14:46:03.010Z,5.63
2019-05-06T14:48:33.884Z,2.40
2019-05-06T14:51:02.834Z,2.23
2019-05-06T14:53:33.066Z,1.17
2019-05-06T14:56:04.238Z,2.27
2019-05-06T14:58:33.120Z,6.90
2019-05-06T15:01:03.533Z,2.47
2019-05-06T15:03:32.668Z,1.97
2019-05-06T15:06:02.637Z,3.00
2019-05-06T15:08:32.288Z,9.93
2019-05-06T15:11:03.116Z,2.30
2019-05-06T15:13:32.257Z,2.53
2019-05-06T15:16:03.454Z,1.23
2019-05-06T15:18:32.178Z,1.70
2019-05-06T15:21:29.076Z,4.30
2019-05-06T15:23:31.700Z,3.30
2019-05-06T15:26:02.920Z,4.50
2019-05-06T15:28:33.600Z,3.10
2019-05-06T15:31:12.528Z,2.07
2019-05-06T15:33:43.085Z,2.33
2019-05-06T15:36:13.821Z,1.33
2019-05-06T15:38:42.796Z,2.70
2019-05-06T15:41:12.878Z,2.80
2019-05-06T15:43:41.914Z,3.80
2019-05-06T15:46:12.245Z,3.53
2019-05-06T15:48:42.009Z,3.13
2019-05-06T15:51:12.219Z,5.90
2019-05-06T15:53:43.302Z,2.77
2019-05-06T15:56:12.347Z,4.70
2019-05-06T15:58:42.337Z,3.83
2019-05-06T16:01:14.289Z,3.47
2019-05-06T16:03:43.360Z,5.70
2019-05-06T16:06:12.622Z,4.13
2019-05-06T16:08:42.752Z,1.50
2019-05-06T16:11:27.074Z,3.90
2019-05-06T16:13:46.931Z,1.97
2019-05-06T16:16:15.639Z,3.63
2019-05-06T16:18:44.520Z,3.37
2019-05-06T16:21:13.415Z,4.13
2019-05-06T16:23:46.487Z,2.57
2019-05-06T16:26:17.268Z,3.60
2019-05-06T16:28:46.274Z,1.27
2019-05-06T16:31:15.058Z,1.60
2019-05-06T16:33:47.851Z,5.77
2019-05-06T16:36:16.849Z,2.60
2019-05-06T16:38:45.839Z,3.37
2019-05-06T16:41:16.353Z,3.37
2019-05-06T16:43:45.262Z,1.77
2019-05-06T16:46:23.005Z,2.47
2019-05-06T16:48:52.518Z,3.10
2019-05-06T16:51:22.288Z,5.00
2019-05-06T16:53:52.520Z,2.83
2019-05-06T16:56:38.548Z,6.33
2019-05-06T16:59:10.434Z,9.40
2019-05-06T17:01:42.577Z,4.03
2019-05-06T17:04:14.632Z,4.43
2019-05-06T17:06:45.145Z,3.80
2019-05-06T17:09:20.904Z,2.60
2019-05-06T17:11:44.710Z,7.20
2019-05-06T17:14:13.751Z,2.33
2019-05-06T17:16:42.760Z,3.47
2019-05-06T17:19:12.693Z,4.87
2019-05-06T17:21:42.410Z,6.73
2019-05-06T17:24:13.023Z,6.93
2019-05-06T17:26:43.610Z,4.40
2019-05-06T17:29:15.654Z,5.43
2019-05-06T17:31:47.748Z,2.73
2019-05-06T17:34:20.968Z,6.77
2019-05-06T17:36:53.457Z,6.37
2019-05-06T17:39:24.051Z,2.77
2019-05-06T17:41:54.095Z,7.73
2019-05-06T17:44:25.047Z,3.27
2019-05-06T17:47:12.208Z,4.13
2019-05-06T17:49:42.267Z,3.00
2019-05-06T17:52:15.927Z,4.00
2019-05-06T17:54:44.730Z,4.00
2019-05-06T17:57:13.642Z,3.40
2019-05-06T17:59:42.642Z,6.47
2019-05-06T18:02:14.989Z,6.00
2019-05-06T18:04:44.167Z,2.93
2019-05-06T18:07:13.219Z,4.67
2019-05-06T18:09:42.623Z,7.67
2019-05-06T18:12:12.199Z,5.37
2019-05-06T18:14:43.274Z,3.70
2019-05-06T18:17:12.591Z,8.50
2019-05-06T18:19:41.911Z,6.57
2019-05-06T18:22:12.962Z,5.00
2019-05-06T18:24:41.258Z,4.07
2019-05-06T18:27:10.100Z,4.43
2019-05-06T18:29:38.961Z,2.30
2019-05-06T18:32:07.937Z,3.33
2019-05-06T18:34:36.857Z,3.77
2019-05-06T18:37:05.653Z,5.50
2019-05-06T18:39:34.663Z,6.20
2019-05-06T18:42:15.441Z,4.17
2019-05-06T18:44:33.966Z,7.57
2019-05-06T18:47:02.986Z,4.47
2019-05-06T18:49:33.666Z,8.43
2019-05-06T18:52:02.339Z,5.60
2019-05-06T18:54:33.874Z,5.83
2019-05-06T18:57:04.297Z,4.00
2019-05-06T18:59:33.123Z,3.13
2019-05-06T19:02:02.484Z,3.13
2019-05-06T19:04:35.921Z,7.20
2019-05-06T19:07:12.869Z,3.37
2019-05-06T19:09:42.220Z,4.73
2019-05-06T19:12:12.736Z,5.70
2019-05-06T19:14:43.225Z,8.27
2019-05-06T19:17:17.332Z,4.93
2019-05-06T19:19:46.089Z,5.80
2019-05-06T19:22:15.002Z,7.93
2019-05-06T19:24:44.657Z,6.60
2019-05-06T19:27:13.668Z,8.17
2019-05-06T19:29:43.257Z,6.03
2019-05-06T19:32:12.469Z,7.73
2019-05-06T19:34:42.253Z,10.80
2019-05-06T19:37:11.222Z,7.57
2019-05-06T19:39:40.009Z,7.43
2019-05-06T19:42:09.014Z,5.60
2019-05-06T19:44:37.895Z,7.60
2019-05-06T19:47:06.780Z,6.70
2019-05-06T19:49:35.608Z,8.57
2019-05-06T19:52:05.973Z,7.93
2019-05-06T19:54:34.902Z,12.43
2019-05-06T19:57:03.806Z,6.83
2019-05-06T19:59:33.203Z,10.67
2019-05-06T20:02:02.256Z,11.10
2019-05-06T20:04:33.233Z,8.23
2019-05-06T20:07:20.098Z,9.33
2019-05-06T20:10:06.827Z,6.10
2019-05-06T20:12:37.406Z,5.87
2019-05-06T20:15:26.223Z,7.07
2019-05-06T20:17:55.435Z,7.63
2019-05-06T20:20:24.221Z,7.17
2019-05-06T20:22:53.419Z,6.67
2019-05-06T20:25:22.431Z,5.87
2019-05-06T20:27:52.664Z,6.30
2019-05-06T20:30:21.992Z,8.20
2019-05-06T20:32:52.129Z,7.47
2019-05-06T20:35:22.416Z,4.37
2019-05-06T20:37:53.252Z,7.93
2019-05-06T20:40:22.935Z,8.30
2019-05-06T20:42:52.117Z,7.40
2019-05-06T20:45:23.677Z,12.17
2019-05-06T20:47:52.645Z,5.83
2019-05-06T20:50:23.177Z,10.17
2019-05-06T20:52:52.244Z,7.23
2019-05-06T20:55:22.918Z,9.80
2019-05-06T20:57:52.907Z,11.37
2019-05-06T21:00:22.556Z,11.07
2019-05-06T21:02:56.402Z,12.63
2019-05-06T21:05:46.174Z,9.57
2019-05-06T21:08:06.311Z,7.33
2019-05-06T21:10:35.293Z,8.60
2019-05-06T21:13:04.353Z,10.20
2019-05-06T21:15:33.332Z,10.77
2019-05-06T21:18:04.464Z,7.57
2019-05-06T21:20:33.126Z,10.80
2019-05-06T21:23:02.570Z,10.20
2019-05-06T21:25:32.199Z,9.40
2019-05-06T21:28:02.875Z,9.53
2019-05-06T21:30:32.306Z,14.07
2019-05-06T21:33:01.408Z,8.33
2019-05-06T21:35:30.359Z,8.23
2019-05-06T21:37:59.040Z,9.37
2019-05-06T21:40:27.801Z,6.77
2019-05-06T21:42:56.555Z,10.57
2019-05-06T21:45:25.680Z,8.40
2019-05-06T21:47:54.557Z,6.10
2019-05-06T21:50:23.321Z,12.70
2019-05-06T21:52:52.029Z,5.83
2019-05-06T21:55:22.675Z,9.20
2019-05-06T21:57:52.975Z,9.33
2019-05-06T22:00:44.627Z,8.60
2019-05-06T22:03:13.754Z,11.17
2019-05-06T22:05:42.586Z,9.17
2019-05-06T22:08:12.899Z,10.63
2019-05-06T22:10:46.960Z,6.57
2019-05-06T22:13:15.659Z,10.73
2019-05-06T22:15:46.049Z,10.43
2019-05-06T22:18:14.769Z,8.47
2019-05-06T22:21:02.894Z,9.23
2019-05-06T22:23:49.750Z,10.60
2019-05-06T22:26:18.757Z,8.83
2019-05-06T22:28:47.739Z,11.97
2019-05-06T22:31:16.587Z,11.43
2019-05-06T22:33:45.335Z,12.80
2019-05-06T22:36:14.083Z,12.23
2019-05-06T22:38:44.366Z,9.53
2019-05-06T22:41:13.769Z,8.70
2019-05-06T22:43:42.734Z,15.13
2019-05-06T22:46:12.350Z,8.73
2019-05-06T22:48:43.382Z,11.17
2019-05-06T22:51:12.395Z,11.30
2019-05-06T22:53:42.503Z,10.90
2019-05-06T22:56:13.240Z,13.40
2019-05-06T22:58:42.764Z,10.63
2019-05-06T23:01:13.733Z,12.57
2019-05-06T23:03:43.026Z,10.07
2019-05-06T23:06:12.532Z,9.83
2019-05-06T23:08:43.307Z,11.17
2019-05-06T23:11:13.586Z,13.67
2019-05-06T23:13:44.062Z,10.57
2019-05-06T23:16:12.930Z,11.17
2019-05-06T23:18:42.877Z,10.90
2019-05-06T23:21:14.645Z,11.80
2019-05-06T23:23:43.508Z,13.37
2019-05-06T23:26:24.931Z,12.33
2019-05-06T23:28:53.697Z,11.60
2019-05-06T23:31:24.435Z,13.50
2019-05-06T23:33:53.603Z,11.23
2019-05-06T23:36:22.955Z,13.57
2019-05-06T23:39:28.159Z,10.20
2019-05-06T23:42:33.082Z,15.60
2019-05-06T23:45:38.267Z,10.80
2019-05-06T23:48:43.145Z,12.33
2019-05-06T23:51:48.450Z,9.93
2019-05-06T23:54:53.512Z,11.10
2019-05-06T23:57:22.517Z,16.00
2019-05-06T23:59:51.889Z,12.80
